Time;durP1;ratioP1;P1;durP2;ratioP2;P2;SDS_P1;SDS_P2;PMS_P1;PMS_P2;Temp;Humidity;BMP_temperature;BMP_pressure;BME280_temperature;BME280_humidity;BME280_pressure;Samples;Min_cycle;Max_cycle;Signal;HPM_P1;HPM_P2
2021/06/22 00:00:07;;;;;;;17.20;9.57;;;;;;;10.48;69.23;101970.84;4969239;28;20022;-86
2021/06/22 00:02:33;;;;;;;19.17;11.10;;;;;;;10.36;69.21;101960.41;4972946;28;20034;-86
2021/06/22 00:04:58;;;;;;;16.88;10.35;;;;;;;10.43;69.57;101973.13;4971124;28;20122;-86
2021/06/22 00:07:23;;;;;;;15.30;10.40;;;;;;;10.43;69.98;101973.13;4956704;28;20185;-86
2021/06/22 00:09:49;;;;;;;15.90;10.15;;;;;;;10.31;69.65;101968.91;4969330;28;20041;-86
2021/06/22 00:12:14;;;;;;;18.63;10.80;;;;;;;10.36;70.08;101971.16;4962485;28;20465;-86
2021/06/22 00:14:40;;;;;;;15.27;10.15;;;;;;;10.30;70.40;101972.59;4973811;28;20037;-86
2021/06/22 00:17:06;;;;;;;19.08;10.57;;;;;;;10.24;70.26;101973.09;4995703;28;21991;-86
2021/06/22 00:19:31;;;;;;;18.25;10.95;;;;;;;10.02;70.57;101947.41;4954807;28;20550;-86
2021/06/22 00:21:56;;;;;;;15.27;10.68;;;;;;;10.08;70.97;101976.38;4975890;28;20022;-86
2021/06/22 00:24:22;;;;;;;17.23;9.90;;;;;;;10.01;71.05;101961.84;4973142;28;20384;-86
2021/06/22 00:26:47;;;;;;;18.00;10.75;;;;;;;9.86;70.95;101938.06;4976104;28;20118;-86
2021/06/22 00:29:13;;;;;;;18.20;10.35;;;;;;;10.01;70.86;101973.44;4975364;28;20034;-86
2021/06/22 00:31:38;;;;;;;17.98;10.80;;;;;;;10.07;71.43;101986.28;4979022;28;20084;-86
2021/06/22 00:34:03;;;;;;;20.00;10.38;;;;;;;9.93;71.53;101961.72;4975261;28;20034;-86
2021/06/22 00:36:29;;;;;;;15.05;9.82;;;;;;;9.74;71.86;101947.28;4974336;28;20113;-86
2021/06/22 00:38:54;;;;;;;17.58;10.93;;;;;;;9.93;71.46;101981.34;4963386;28;20026;-85
2021/06/22 00:41:21;;;;;;;20.20;10.10;;;;;;;9.91;72.21;101988.69;4973325;28;20023;-85
2021/06/22 00:43:47;;;;;;;19.73;11.32;;;;;;;9.88;72.04;101989.00;4971082;28;20109;-86
2021/06/22 00:46:12;;;;;;;21.00;11.38;;;;;;;9.92;72.06;101990.38;4959253;28;20090;-86
2021/06/22 00:48:38;;;;;;;17.20;11.05;;;;;;;9.90;72.06;101982.50;4975886;28;20028;-86
2021/06/22 00:51:03;;;;;;;24.63;10.88;;;;;;;9.68;72.00;101946.03;4976962;28;20018;-85
2021/06/22 00:53:29;;;;;;;18.58;11.35;;;;;;;9.91;72.10;101997.59;4974653;28;20061;-86
2021/06/22 00:55:55;;;;;;;21.35;11.43;;;;;;;9.90;71.98;101987.03;4975277;28;20034;-86
2021/06/22 00:58:21;;;;;;;18.55;11.57;;;;;;;9.75;71.70;101951.66;4962949;28;20073;-86
2021/06/22 01:00:47;;;;;;;19.98;10.90;;;;;;;10.00;71.55;101976.25;4976838;28;20029;-85
2021/06/22 01:03:12;;;;;;;18.55;9.88;;;;;;;10.15;71.13;101984.75;4962088;28;20030;-85
2021/06/22 01:05:38;;;;;;;16.90;11.32;;;;;;;10.04;70.60;101967.78;4974834;28;20449;-85
2021/06/22 01:08:04;;;;;;;17.33;10.82;;;;;;;10.09;71.04;101984.31;4977511;28;20057;-86
2021/06/22 01:10:29;;;;;;;18.63;11.45;;;;;;;10.08;71.00;101981.75;4961773;28;20491;-85
2021/06/22 01:12:55;;;;;;;22.40;11.25;;;;;;;10.01;70.94;101969.91;4960321;28;20117;-86
2021/06/22 01:15:29;;;;;;;18.55;11.13;;;;;;;10.05;71.21;101984.72;4960710;28;20023;-86
2021/06/22 01:17:56;;;;;;;19.27;11.65;;;;;;;10.02;70.91;101979.66;4987211;28;20033;-86
2021/06/22 01:20:24;;;;;;;17.38;11.48;;;;;;;10.00;71.09;101987.88;4957390;28;20402;-86
2021/06/22 01:22:49;;;;;;;19.25;10.77;;;;;;;9.91;71.00;101975.28;4990380;28;20039;-85
2021/06/22 01:25:15;;;;;;;19.13;11.23;;;;;;;9.88;71.30;101978.25;4973808;28;20083;-86
2021/06/22 01:27:41;;;;;;;14.68;10.50;;;;;;;9.83;70.98;101975.13;4979929;28;20026;-86
2021/06/22 01:30:09;;;;;;;17.02;10.20;;;;;;;9.75;71.66;101983.03;4975556;28;20026;-85
2021/06/22 01:32:35;;;;;;;14.95;9.18;;;;;;;9.58;72.35;101972.00;4974416;28;20649;-85
2021/06/22 01:35:00;;;;;;;18.42;9.55;;;;;;;9.50;72.89;101971.88;4961453;28;20482;-86
2021/06/22 01:37:26;;;;;;;14.70;9.73;;;;;;;9.49;72.36;101974.69;4963293;28;20026;-85
2021/06/22 01:39:51;;;;;;;16.77;10.50;;;;;;;9.58;72.48;101977.38;4958931;28;20087;-85
2021/06/22 01:42:18;;;;;;;18.23;9.77;;;;;;;9.55;72.50;101966.94;4967561;28;20045;-86
2021/06/22 01:44:47;;;;;;;20.48;10.55;;;;;;;9.48;72.50;101948.81;4969435;28;20148;-86
2021/06/22 01:47:12;;;;;;;17.42;9.88;;;;;;;9.47;72.72;101964.06;4974671;28;20154;-85
2021/06/22 01:49:38;;;;;;;20.63;10.25;;;;;;;9.42;73.13;101969.00;4983269;28;20147;-85
2021/06/22 01:52:03;;;;;;;16.58;9.43;;;;;;;9.34;73.25;101952.75;4960012;28;20026;-85
2021/06/22 01:54:29;;;;;;;14.23;9.50;;;;;;;9.39;73.32;101961.22;4957872;28;20030;-86
2021/06/22 01:56:55;;;;;;;21.20;10.60;;;;;;;9.31;73.38;101944.97;4972739;28;20074;-85
2021/06/22 01:59:20;;;;;;;16.05;10.63;;;;;;;9.36;73.18;101958.81;4972216;28;20418;-86
2021/06/22 02:01:46;;;;;;;17.13;9.70;;;;;;;9.22;73.27;101927.88;4956409;28;20037;-86
2021/06/22 02:04:11;;;;;;;14.98;9.98;;;;;;;9.37;73.06;101969.44;4949743;28;20030;-85
2021/06/22 02:06:38;;;;;;;16.45;9.63;;;;;;;9.33;73.22;101969.84;4970279;28;20084;-86
2021/06/22 02:09:04;;;;;;;15.82;9.85;;;;;;;9.15;72.91;101935.59;4969376;28;20026;-85
2021/06/22 02:11:30;;;;;;;19.05;10.93;;;;;;;9.28;72.65;101954.16;4971314;28;20041;-85
2021/06/22 02:13:55;;;;;;;17.35;10.20;;;;;;;9.37;73.32;101969.44;4956743;28;20026;-85
2021/06/22 02:16:21;;;;;;;16.13;11.05;;;;;;;9.36;72.84;101956.97;4971492;28;20488;-86
2021/06/22 02:18:46;;;;;;;17.63;10.70;;;;;;;9.12;72.75;101933.19;4984658;28;20045;-86
2021/06/22 02:21:12;;;;;;;13.85;9.77;;;;;;;9.24;73.53;101969.69;4988319;28;20022;-86
2021/06/22 02:23:38;;;;;;;16.80;10.15;;;;;;;9.12;74.14;101978.81;4957526;28;20042;-86
2021/06/22 02:26:05;;;;;;;17.02;10.13;;;;;;;9.10;74.38;101972.72;4962780;28;20049;-85
2021/06/22 02:28:31;;;;;;;20.23;12.15;;;;;;;8.94;74.60;101946.41;4972836;28;20034;-85
2021/06/22 02:30:56;;;;;;;20.30;11.63;;;;;;;9.02;74.22;101970.75;4965495;28;20022;-86
2021/06/22 02:33:22;;;;;;;19.77;11.10;;;;;;;8.94;74.58;101956.31;4976014;28;20035;-85
2021/06/22 02:35:48;;;;;;;16.08;10.38;;;;;;;8.96;74.38;101962.38;4964250;28;20031;-86
2021/06/22 02:38:13;;;;;;;17.48;10.55;;;;;;;8.95;74.03;101958.88;4970340;28;20041;-85
2021/06/22 02:40:39;;;;;;;16.60;10.45;;;;;;;8.99;73.52;101959.44;4966689;28;20022;-85
2021/06/22 02:43:05;;;;;;;17.50;10.73;;;;;;;8.95;73.33;101958.88;4967459;28;20129;-85
2021/06/22 02:45:33;;;;;;;16.25;11.07;;;;;;;8.93;73.58;101957.31;4952628;28;20186;-85
2021/06/22 02:47:59;;;;;;;17.27;10.32;;;;;;;8.93;73.65;101954.63;4958430;28;20030;-85
2021/06/22 02:50:24;;;;;;;18.23;10.70;;;;;;;8.70;74.18;101919.09;4982321;28;20050;-85
2021/06/22 02:52:50;;;;;;;19.73;11.52;;;;;;;8.74;74.04;101944.66;4965557;28;20023;-85
2021/06/22 02:55:18;;;;;;;16.48;9.88;;;;;;;8.62;74.02;101935.00;4952432;28;20018;-86
2021/06/22 02:57:49;;;;;;;15.77;10.13;;;;;;;8.45;75.21;101948.06;4969904;28;20026;-85
2021/06/22 03:00:16;;;;;;;20.23;10.93;;;;;;;8.33;75.23;101938.34;4964212;28;20030;-86
2021/06/22 03:02:42;;;;;;;15.05;10.15;;;;;;;8.42;75.31;101958.19;4969631;28;20050;-86
2021/06/22 03:05:08;;;;;;;21.00;11.65;;;;;;;8.28;74.97;101944.13;4970718;28;20030;-87
2021/06/22 03:07:34;;;;;;;20.25;10.88;;;;;;;8.13;76.06;101946.28;4967145;28;20023;-84
2021/06/22 03:09:59;;;;;;;21.55;10.88;;;;;;;8.19;76.25;101960.97;4957300;28;20050;-85
2021/06/22 03:12:24;;;;;;;16.98;10.00;;;;;;;8.18;75.93;101969.13;4972098;28;20057;-86
2021/06/22 03:14:50;;;;;;;17.75;10.48;;;;;;;8.00;76.33;101942.94;4972462;28;20018;-85
2021/06/22 03:17:15;;;;;;;18.77;10.88;;;;;;;8.15;76.56;101970.28;4951770;28;20023;-85
2021/06/22 03:19:41;;;;;;;18.95;10.15;;;;;;;7.96;76.21;101924.56;4956823;28;20034;-85
2021/06/22 03:22:06;;;;;;;16.60;10.80;;;;;;;8.10;75.28;101938.50;4968342;28;20022;-86
2021/06/22 03:24:31;;;;;;;22.08;10.82;;;;;;;8.23;75.51;101962.44;4981953;28;20093;-85
2021/06/22 03:26:57;;;;;;;18.42;10.40;;;;;;;8.19;75.58;101960.13;4962196;28;20120;-85
2021/06/22 03:29:24;;;;;;;15.85;9.80;;;;;;;8.21;75.77;101961.69;4948444;28;20026;-86
2021/06/22 03:31:49;;;;;;;17.35;10.48;;;;;;;8.23;75.12;101970.47;4965364;28;20518;-85
2021/06/22 03:34:15;;;;;;;15.65;10.30;;;;;;;8.22;75.23;101966.06;4966148;28;20069;-86
2021/06/22 03:36:40;;;;;;;16.38;10.25;;;;;;;8.16;75.04;101966.59;4978098;28;20030;-86
2021/06/22 03:39:09;;;;;;;17.52;10.85;;;;;;;8.19;75.32;101968.16;4978706;28;20476;-85
2021/06/22 03:41:35;;;;;;;16.33;10.32;;;;;;;7.95;75.29;101936.28;4956022;28;20030;-86
2021/06/22 03:44:01;;;;;;;16.98;10.00;;;;;;;8.08;75.58;101959.22;4968856;28;20030;-86
2021/06/22 03:46:27;;;;;;;16.20;9.75;;;;;;;8.04;75.71;101963.13;4971342;28;20037;-84
2021/06/22 03:48:52;;;;;;;15.43;8.95;;;;;;;7.87;76.01;101943.13;4973661;28;20034;-84
2021/06/22 03:51:18;;;;;;;18.98;10.55;;;;;;;7.77;75.57;101912.75;4971711;28;20024;-85
2021/06/22 03:53:43;;;;;;;18.58;10.55;;;;;;;8.12;75.51;101968.69;4971673;28;20132;-84
2021/06/22 03:56:09;;;;;;;16.42;9.30;;;;;;;8.11;76.45;101966.97;4973496;28;20042;-86
2021/06/22 03:58:35;;;;;;;18.67;10.80;;;;;;;7.73;75.74;101903.28;4970954;28;20026;-86
2021/06/22 04:01:02;;;;;;;18.38;10.68;;;;;;;8.13;75.97;101969.53;4971441;28;20022;-85
2021/06/22 04:03:28;;;;;;;18.20;10.95;;;;;;;8.03;75.82;101973.97;4958769;28;20390;-84
2021/06/22 04:05:53;;;;;;;19.35;11.20;;;;;;;7.86;76.46;101970.91;4952837;28;20038;-84
2021/06/22 04:08:19;;;;;;;18.40;11.75;;;;;;;7.59;76.54;101946.41;4960143;28;20041;-86
2021/06/22 04:10:44;;;;;;;22.73;11.57;;;;;;;7.67;77.31;101984.09;4973736;28;20114;-85
2021/06/22 04:13:09;;;;;;;23.27;11.50;;;;;;;7.53;77.05;101957.63;4972780;28;20029;-84
2021/06/22 04:15:35;;;;;;;17.95;10.73;;;;;;;7.70;77.28;101992.75;4957202;28;20044;-84
2021/06/22 04:18:04;;;;;;;16.85;10.13;;;;;;;7.64;77.43;101976.31;4956911;28;20049;-85
2021/06/22 04:20:30;;;;;;;18.70;11.35;;;;;;;7.78;76.63;101993.91;4959965;28;20038;-84
2021/06/22 04:22:56;;;;;;;19.90;10.80;;;;;;;7.68;76.89;101978.63;4972623;28;20507;-86
2021/06/22 04:25:21;;;;;;;17.40;10.88;;;;;;;7.65;76.05;101978.88;4957237;28;20034;-86
2021/06/22 04:27:47;;;;;;;19.15;11.32;;;;;;;7.73;75.53;101980.94;4953721;28;20554;-85
2021/06/22 04:30:13;;;;;;;16.42;10.90;;;;;;;7.74;76.20;101995.16;4953451;28;20076;-83
2021/06/22 04:32:39;;;;;;;17.52;10.23;;;;;;;7.52;76.08;101961.28;4971406;28;20025;-85
2021/06/22 04:35:05;;;;;;;18.67;9.70;;;;;;;7.53;76.03;101960.31;4959857;28;20509;-84
2021/06/22 04:37:30;;;;;;;17.48;9.82;;;;;;;7.72;75.57;101998.78;4956017;28;20034;-84
2021/06/22 04:39:56;;;;;;;19.92;11.18;;;;;;;7.60;75.97;102001.66;4954933;28;20045;-84
2021/06/22 04:42:21;;;;;;;18.02;11.32;;;;;;;7.51;77.08;101989.84;4969905;28;20920;-84
2021/06/22 04:44:47;;;;;;;19.27;11.30;;;;;;;7.36;77.43;101997.31;4954662;28;20117;-86
2021/06/22 04:47:13;;;;;;;18.98;10.70;;;;;;;7.25;77.99;101983.94;4967475;28;20109;-85
2021/06/22 04:49:38;;;;;;;17.35;9.88;;;;;;;7.04;78.52;101957.97;4965387;28;20022;-84
2021/06/22 04:52:04;;;;;;;16.92;9.68;;;;;;;7.26;78.58;101977.63;4954281;28;20058;-85
2021/06/22 04:54:29;;;;;;;16.08;9.30;;;;;;;7.36;78.53;102001.84;4953463;28;20099;-85
2021/06/22 04:56:55;;;;;;;16.60;10.75;;;;;;;7.45;78.10;101999.25;4967048;28;20030;-85
2021/06/22 04:59:20;;;;;;;14.30;9.30;;;;;;;7.56;78.16;101990.31;4968147;28;20563;-85
2021/06/22 05:01:45;;;;;;;20.52;10.32;;;;;;;7.63;77.58;101993.38;4969291;28;20031;-85
2021/06/22 05:04:12;;;;;;;17.08;9.60;;;;;;;7.75;77.65;102011.06;4970816;28;20045;-85
2021/06/22 05:06:38;;;;;;;18.80;10.20;;;;;;;7.76;77.52;102011.94;4955825;28;20030;-86
2021/06/22 05:09:04;;;;;;;17.00;9.30;;;;;;;7.62;76.94;101997.00;4971216;28;20057;-85
2021/06/22 05:11:29;;;;;;;18.45;10.60;;;;;;;7.53;77.01;101962.97;4954490;28;20047;-84
2021/06/22 05:13:56;;;;;;;19.30;9.65;;;;;;;7.80;77.31;102016.91;4953739;28;20022;-85
2021/06/22 05:16:22;;;;;;;15.55;9.40;;;;;;;7.60;77.27;101985.59;4966859;28;20027;-85
2021/06/22 05:18:48;;;;;;;19.13;10.75;;;;;;;7.80;77.56;102024.94;4965257;28;20062;-85
2021/06/22 05:21:13;;;;;;;20.15;10.73;;;;;;;7.52;76.76;101983.53;4982464;28;20045;-85
2021/06/22 05:23:39;;;;;;;22.17;10.93;;;;;;;7.43;76.62;101968.22;4951917;28;20034;-85
2021/06/22 05:26:04;;;;;;;20.00;10.18;;;;;;;7.70;77.39;102016.84;4951107;28;20466;-85
2021/06/22 05:28:30;;;;;;;18.75;11.25;;;;;;;7.69;77.24;102000.88;4970966;28;20026;-85
2021/06/22 05:30:55;;;;;;;20.35;10.95;;;;;;;7.56;76.42;101970.75;4954153;28;20018;-85
2021/06/22 05:33:22;;;;;;;18.20;10.80;;;;;;;7.95;76.38;102038.91;4967850;28;20023;-85
2021/06/22 05:35:47;;;;;;;18.98;11.13;;;;;;;7.91;76.07;102022.25;4964847;28;20038;-84
2021/06/22 05:38:13;;;;;;;17.85;11.20;;;;;;;7.90;75.74;102020.53;4952589;28;20072;-85
2021/06/22 05:40:38;;;;;;;19.58;10.40;;;;;;;7.87;76.76;102036.00;4954178;28;20023;-84
2021/06/22 05:43:04;;;;;;;18.80;10.50;;;;;;;7.81;76.81;102017.78;4956415;28;20041;-86
2021/06/22 05:45:29;;;;;;;18.10;11.00;;;;;;;7.81;76.78;102015.94;4957510;28;20034;-85
2021/06/22 05:47:55;;;;;;;16.33;11.02;;;;;;;7.81;76.81;102005.22;4973561;28;20025;-85
2021/06/22 05:50:20;;;;;;;16.65;11.18;;;;;;;7.97;76.02;102036.09;4955767;28;20022;-86
2021/06/22 05:52:46;;;;;;;20.30;11.65;;;;;;;7.93;76.39;102046.19;4970996;28;20108;-84
2021/06/22 05:55:21;;;;;;;19.90;12.95;;;;;;;7.64;76.07;102000.41;4958096;28;20100;-86
2021/06/22 05:57:51;;;;;;;17.23;9.90;;;;;;;7.97;77.48;102054.84;4955937;28;20129;-86
2021/06/22 06:00:19;;;;;;;20.23;10.88;;;;;;;7.91;77.27;102040.13;4955171;28;20037;-84
2021/06/22 06:02:45;;;;;;;17.77;10.38;;;;;;;8.07;77.20;102047.72;4961879;28;20582;-86
2021/06/22 06:05:11;;;;;;;20.13;11.32;;;;;;;8.11;76.89;102049.19;4969299;28;20026;-85
2021/06/22 06:07:37;;;;;;;17.98;10.25;;;;;;;8.21;77.02;102060.84;4968601;28;20030;-84
2021/06/22 06:10:04;;;;;;;20.70;11.93;;;;;;;8.29;76.66;102058.38;4969461;28;20081;-86
2021/06/22 06:12:30;;;;;;;20.55;11.63;;;;;;;8.13;77.60;102023.97;4963591;28;20105;-86
2021/06/22 06:14:55;;;;;;;17.20;11.07;;;;;;;8.36;77.11;102039.91;4971166;28;20042;-84
2021/06/22 06:17:21;;;;;;;21.83;11.65;;;;;;;8.52;77.13;102047.53;4971153;28;20034;-86
2021/06/22 06:19:46;;;;;;;19.17;11.43;;;;;;;8.50;77.17;102044.16;4950641;28;20026;-84
2021/06/22 06:22:12;;;;;;;16.95;9.70;;;;;;;8.53;77.29;102055.47;4966074;28;20037;-85
2021/06/22 06:24:37;;;;;;;24.00;11.85;;;;;;;8.26;78.50;102006.88;4973039;28;20924;-85
2021/06/22 06:27:49;;;;;;;16.27;10.50;;;;;;;8.69;78.34;102060.38;4955185;28;20104;-85
2021/06/22 06:30:02;;;;;;;19.67;11.07;;;;;;;8.64;77.77;102035.78;4961070;28;20105;-85
2021/06/22 06:32:27;;;;;;;20.00;11.75;;;;;;;8.82;77.23;102046.75;4962746;28;20014;-85
2021/06/22 06:34:52;;;;;;;20.10;11.18;;;;;;;8.90;76.48;102041.56;4964667;28;20808;-85
2021/06/22 06:37:18;;;;;;;22.02;11.52;;;;;;;9.00;76.50;102042.47;4982122;28;20506;-86
2021/06/22 06:39:43;;;;;;;19.55;11.05;;;;;;;9.16;75.73;102050.03;4963291;28;20045;-85
2021/06/22 06:42:09;;;;;;;15.15;9.75;;;;;;;9.32;75.79;102056.72;4964538;28;20026;-85
2021/06/22 06:44:35;;;;;;;18.63;10.20;;;;;;;9.15;75.49;102018.78;4963168;28;20546;-85
2021/06/22 06:47:01;;;;;;;20.02;10.60;;;;;;;9.52;75.57;102057.63;4951678;28;22719;-85
2021/06/22 06:49:27;;;;;;;13.80;9.70;;;;;;;9.64;75.04;102069.97;4967333;28;20043;-85
2021/06/22 06:51:52;;;;;;;17.95;10.82;;;;;;;9.77;74.30;102064.34;4963306;28;20032;-85
2021/06/22 06:54:18;;;;;;;19.00;10.32;;;;;;;9.81;73.53;102063.06;4962768;28;20022;-84
2021/06/22 06:56:43;;;;;;;18.42;10.30;;;;;;;9.72;73.32;102029.00;4980274;28;20037;-84
2021/06/22 06:59:08;;;;;;;15.07;10.40;;;;;;;9.88;73.62;102051.63;4951578;28;20031;-84
2021/06/22 07:01:34;;;;;;;19.30;11.65;;;;;;;9.96;73.33;102050.09;4964364;28;20030;-85
2021/06/22 07:03:59;;;;;;;17.55;10.70;;;;;;;9.99;73.53;102061.38;4963716;28;20105;-84
2021/06/22 07:06:25;;;;;;;18.13;10.85;;;;;;;10.05;74.09;102065.34;4948827;28;20121;-85
2021/06/22 07:08:51;;;;;;;17.38;10.40;;;;;;;10.10;74.73;102069.31;4953254;28;20070;-85
2021/06/22 07:11:20;;;;;;;20.02;11.65;;;;;;;10.10;74.19;102069.31;4966796;28;20018;-86
2021/06/22 07:13:46;;;;;;;16.60;10.15;;;;;;;10.20;73.95;102079.22;4964333;28;20109;-84
2021/06/22 07:16:11;;;;;;;20.65;11.02;;;;;;;10.17;73.26;102069.63;4954147;28;20109;-85
2021/06/22 07:18:37;;;;;;;19.80;11.20;;;;;;;10.17;73.02;102083.06;4956411;28;20030;-85
2021/06/22 07:21:02;;;;;;;15.15;10.00;;;;;;;10.18;73.70;102070.47;4975529;28;20030;-86
2021/06/22 07:23:28;;;;;;;18.58;11.73;;;;;;;10.15;73.98;102055.47;4970999;28;20398;-85
2021/06/22 07:25:53;;;;;;;17.90;10.48;;;;;;;10.32;73.49;102076.31;4989315;28;20033;-85
2021/06/22 07:28:19;;;;;;;17.02;11.50;;;;;;;10.50;73.69;102092.53;4977397;28;20030;-85
2021/06/22 07:30:45;;;;;;;17.92;10.90;;;;;;;10.56;73.79;102089.31;4989905;28;20030;-85
2021/06/22 07:33:10;;;;;;;21.52;11.52;;;;;;;10.45;73.96;102057.19;4960899;28;20743;-85
2021/06/22 07:35:36;;;;;;;20.20;11.85;;;;;;;10.74;74.25;102078.66;4958360;28;20022;-84
2021/06/22 07:38:02;;;;;;;16.48;11.02;;;;;;;10.98;73.79;102096.16;4976588;28;20066;-85
2021/06/22 07:40:28;;;;;;;17.55;11.48;;;;;;;10.98;73.38;102086.25;4972843;28;21619;-84
2021/06/22 07:42:54;;;;;;;18.98;11.90;;;;;;;10.97;73.28;102073.78;4971090;28;20150;-85
2021/06/22 07:45:20;;;;;;;18.10;12.00;;;;;;;11.23;73.54;102097.34;4960195;28;20113;-81
2021/06/22 07:47:46;;;;;;;19.42;10.55;;;;;;;11.22;73.23;102085.75;4977229;28;20085;-82
2021/06/22 07:50:12;;;;;;;21.08;12.80;;;;;;;11.39;73.70;102094.88;4987748;28;20026;-84
2021/06/22 07:52:38;;;;;;;17.25;11.48;;;;;;;11.36;72.71;102084.41;4971825;28;20062;-84
2021/06/22 07:55:05;;;;;;;19.10;11.45;;;;;;;11.55;72.61;102101.47;4962167;28;20057;-83
2021/06/22 07:57:30;;;;;;;20.27;11.57;;;;;;;11.57;71.97;102097.63;4960896;28;21335;-81
2021/06/22 07:59:56;;;;;;;19.40;11.98;;;;;;;11.67;71.71;102105.69;4969537;28;20122;-82
2021/06/22 08:02:21;;;;;;;18.73;12.38;;;;;;;11.66;71.33;102091.34;4974050;28;20018;-83
2021/06/22 08:04:47;;;;;;;17.50;11.20;;;;;;;11.72;70.94;102089.03;4966464;28;20503;-81
2021/06/22 08:07:12;;;;;;;17.48;11.15;;;;;;;11.87;70.73;102112.66;4985961;28;20402;-83
2021/06/22 08:09:38;;;;;;;16.48;10.57;;;;;;;11.93;69.63;102113.06;4972754;28;20026;-83
2021/06/22 08:12:03;;;;;;;16.80;11.30;;;;;;;12.01;69.70;102100.53;4974898;28;20019;-82
2021/06/22 08:14:29;;;;;;;16.95;11.60;;;;;;;12.29;68.82;102116.66;4980372;28;20232;-81
2021/06/22 08:16:54;;;;;;;13.15;10.00;;;;;;;12.37;68.38;102111.31;4977085;28;20033;-83
2021/06/22 08:19:20;;;;;;;14.15;9.23;;;;;;;12.54;67.74;102106.91;4981442;28;20041;-81
2021/06/22 08:21:45;;;;;;;16.50;9.90;;;;;;;12.70;67.21;102095.41;4982099;28;20101;-81
2021/06/22 08:24:11;;;;;;;17.15;9.98;;;;;;;13.02;67.08;102083.13;4968528;28;20124;-81
2021/06/22 08:26:36;;;;;;;14.88;10.02;;;;;;;13.37;65.86;102098.41;5001948;28;20029;-82
2021/06/22 08:29:02;;;;;;;17.38;10.73;;;;;;;13.60;64.60;102104.94;4967117;28;20027;-82
2021/06/22 08:31:28;;;;;;;16.65;12.02;;;;;;;13.67;64.34;102113.22;4964963;28;20480;-80
2021/06/22 08:33:53;;;;;;;18.20;10.77;;;;;;;13.50;64.41;102098.78;4979740;28;20034;-83
2021/06/22 08:36:18;;;;;;;14.00;9.77;;;;;;;13.36;63.99;102086.75;4965437;28;20030;-82
2021/06/22 08:38:44;;;;;;;13.02;9.40;;;;;;;13.30;64.02;102091.94;4980218;28;20026;-82
2021/06/22 08:41:10;;;;;;;14.07;9.95;;;;;;;13.35;63.56;102105.81;4974992;28;20034;-84
2021/06/22 08:43:35;;;;;;;15.82;10.63;;;;;;;13.38;63.84;102102.78;4971432;28;20073;-84
2021/06/22 08:46:03;;;;;;;14.48;9.88;;;;;;;13.52;63.59;102107.59;4993411;28;20029;-86
2021/06/22 08:48:28;;;;;;;13.40;9.60;;;;;;;13.69;63.52;102102.25;4961551;28;20088;-86
2021/06/22 08:50:54;;;;;;;13.63;9.70;;;;;;;13.85;62.82;102107.72;4961408;28;20019;-85
2021/06/22 08:53:19;;;;;;;14.02;10.13;;;;;;;13.94;62.34;102090.47;4977710;28;20058;-86
2021/06/22 08:55:46;;;;;;;17.30;9.95;;;;;;;14.11;62.26;102098.66;4960679;28;20066;-84
2021/06/22 08:58:15;;;;;;;16.92;10.10;;;;;;;14.40;61.23;102112.53;4994766;28;20033;-86
2021/06/22 09:00:43;;;;;;;16.40;12.05;;;;;;;14.51;59.92;102103.25;4976421;28;20523;-85
2021/06/22 09:03:16;;;;;;;15.23;10.80;;;;;;;14.48;59.70;102103.59;4959695;28;20042;-86
2021/06/22 09:05:48;;;;;;;;;;;;;;;14.57;60.73;102096.34;4960690;28;20052;-84
2021/06/22 09:08:21;;;;;;;13.70;10.32;;;;;;;14.57;60.22;102093.63;4961155;28;20389;-83
2021/06/22 09:10:47;;;;;;;14.63;10.45;;;;;;;14.48;59.92;102081.94;4994890;28;20038;-85
2021/06/22 09:13:21;;;;;;;12.50;9.32;;;;;;;14.41;59.37;102070.94;4977228;28;20031;-85
2021/06/22 09:15:49;;;;;;;12.52;9.30;;;;;;;14.44;58.82;102089.53;4976322;28;20038;-84
2021/06/22 09:18:27;;;;;;;12.57;9.77;;;;;;;14.39;58.65;102105.44;4977261;28;20026;-85
2021/06/22 09:21:04;;;;;;;14.80;9.93;;;;;;;14.28;58.13;102098.47;4994516;28;20026;-84
2021/06/22 09:23:34;;;;;;;15.82;9.75;;;;;;;14.19;58.41;102098.66;4974251;28;20030;-83
2021/06/22 09:26:00;;;;;;;13.15;9.20;;;;;;;14.16;58.50;102099.84;4971405;28;20046;-83
2021/06/22 09:28:31;;;;;;;15.07;9.32;;;;;;;14.01;58.80;102090.69;4961032;28;20030;-84
2021/06/22 09:31:01;;;;;;;15.68;9.77;;;;;;;14.05;59.84;102113.66;4977371;28;20407;-85
2021/06/22 09:33:29;;;;;;;15.05;9.77;;;;;;;14.04;60.12;102101.16;4977424;28;20642;-84
2021/06/22 09:35:59;;;;;;;15.27;9.82;;;;;;;14.03;59.77;102110.28;4977492;28;20054;-85
2021/06/22 09:38:30;;;;;;;14.32;9.90;;;;;;;14.01;59.44;102105.03;4980723;28;20386;-85
2021/06/22 09:41:03;;;;;;;16.58;10.07;;;;;;;13.98;59.33;102089.16;4993411;28;20103;-84
2021/06/22 09:43:50;;;;;;;13.40;9.95;;;;;;;14.20;60.03;102084.94;4994339;28;20532;-85
2021/06/22 09:46:18;;;;;;;14.38;9.48;;;;;;;14.49;59.55;102103.41;4957546;28;20483;-84
2021/06/22 09:48:47;;;;;;;15.07;9.95;;;;;;;14.70;58.89;102102.94;4957866;28;20117;-85
2021/06/22 09:51:13;;;;;;;13.40;9.18;;;;;;;15.00;57.36;102113.22;4962226;28;20148;-83
2021/06/22 09:53:39;;;;;;;15.00;10.13;;;;;;;14.97;56.89;102064.81;4976087;28;20062;-84
2021/06/22 09:56:07;;;;;;;14.63;9.60;;;;;;;15.40;55.73;102087.91;4963880;28;20026;-84
2021/06/22 09:58:37;;;;;;;15.75;9.32;;;;;;;15.55;55.16;102080.69;4959568;28;20032;-85
2021/06/22 10:01:03;;;;;;;11.82;9.45;;;;;;;15.72;53.74;102097.78;4992648;28;20034;-83
2021/06/22 10:03:38;;;;;;;13.52;9.35;;;;;;;15.59;53.09;102092.88;4960173;28;20042;-84
2021/06/22 10:06:07;;;;;;;13.10;9.82;;;;;;;15.44;52.57;102097.34;4976352;28;20077;-84
2021/06/22 10:08:56;;;;;;;12.77;9.65;;;;;;;15.39;52.64;102097.03;4989763;28;20026;-84
2021/06/22 10:11:33;;;;;;;14.15;10.60;;;;;;;15.33;52.28;102101.28;4976531;28;20113;-84
2021/06/22 10:14:00;;;;;;;14.70;10.43;;;;;;;15.26;52.94;102100.28;4974298;28;21062;-83
2021/06/22 10:16:27;;;;;;;13.77;9.93;;;;;;;15.36;52.48;102098.22;4984934;28;20081;-86
2021/06/22 10:18:52;;;;;;;13.30;9.95;;;;;;;15.34;52.64;102089.41;4983362;28;20396;-85
2021/06/22 10:21:18;;;;;;;12.80;10.02;;;;;;;15.46;53.01;102105.31;4959219;28;20160;-83
2021/06/22 10:23:44;;;;;;;13.73;10.60;;;;;;;15.39;52.87;102086.19;4948356;28;20042;-85
2021/06/22 10:26:09;;;;;;;14.23;10.55;;;;;;;15.61;52.79;102095.41;4956427;28;20121;-84
2021/06/22 10:28:35;;;;;;;15.68;10.20;;;;;;;15.64;51.94;102089.66;4964579;28;20046;-84
2021/06/22 10:31:00;;;;;;;14.38;10.23;;;;;;;15.59;52.56;102075.78;4970462;28;20041;-84
2021/06/22 10:33:26;;;;;;;14.25;10.00;;;;;;;15.89;52.46;102092.25;4973133;28;20030;-84
2021/06/22 10:35:52;;;;;;;16.52;10.35;;;;;;;16.12;53.14;102097.72;4977178;28;20034;-84
2021/06/22 10:38:20;;;;;;;10.80;8.73;;;;;;;16.07;52.49;102094.69;4984872;28;20036;-84
2021/06/22 10:40:53;;;;;;;15.30;9.70;;;;;;;16.09;52.25;102101.66;4972614;28;20018;-84
2021/06/22 10:43:36;;;;;;;15.25;10.65;;;;;;;16.04;52.45;102096.75;5005918;28;20061;-84
2021/06/22 10:46:05;;;;;;;15.00;9.68;;;;;;;16.06;52.68;102107.41;4977004;28;20029;-84
2021/06/22 10:48:41;;;;;;;13.82;9.70;;;;;;;16.27;51.72;102101.31;4989453;28;20573;-84
2021/06/22 10:51:26;;;;;;;15.00;10.60;;;;;;;16.45;50.12;102093.72;4977597;28;20105;-84
2021/06/22 10:53:52;;;;;;;14.00;10.48;;;;;;;16.35;49.14;102089.56;4988282;28;20065;-84
2021/06/22 10:56:18;;;;;;;11.35;9.40;;;;;;;16.16;50.36;102083.59;4971007;28;20045;-84
2021/06/22 10:59:11;;;;;;;13.80;10.93;;;;;;;16.16;51.49;102101.75;4957834;28;20037;-84
2021/06/22 11:01:52;;;;;;;14.25;9.68;;;;;;;16.09;51.26;102098.94;4970551;28;20029;-84
2021/06/22 11:04:18;;;;;;;14.10;10.40;;;;;;;16.01;51.62;102107.13;4977671;28;20033;-84
2021/06/22 11:07:06;;;;;;;15.27;10.15;;;;;;;15.93;51.14;102094.44;4972489;28;20022;-84
2021/06/22 11:09:35;;;;;;;14.85;10.35;;;;;;;16.06;51.83;102101.97;4971414;28;20080;-83
2021/06/22 11:12:20;;;;;;;14.98;10.35;;;;;;;16.34;51.63;102098.75;4988823;28;20105;-84
2021/06/22 11:15:05;;;;;;;13.68;9.27;;;;;;;16.41;51.10;102088.88;4989194;28;20022;-84